sensor_id;sensor_type;location;lat;lon;timestamp;pressure;altitude;pressure_sealevel;temperature;humidity
48424;BME280;34232;42.502;26.014;2023-05-12T00:00:50;100568.28;;;10.47;69.18
48424;BME280;34232;42.502;26.014;2023-05-12T00:03:16;100571.75;;;10.48;69.22
48424;BME280;34232;42.502;26.014;2023-05-12T00:05:41;100568.50;;;10.44;69.51
48424;BME280;34232;42.502;26.014;2023-05-12T00:08:06;100564.19;;;10.43;69.59
48424;BME280;34232;42.502;26.014;2023-05-12T00:10:31;100567.19;;;10.39;69.57
48424;BME280;34232;42.502;26.014;2023-05-12T00:12:59;100568.97;;;10.38;69.83
48424;BME280;34232;42.502;26.014;2023-05-12T00:15:24;100565.50;;;10.38;69.97
48424;BME280;34232;42.502;26.014;2023-05-12T00:17:49;100564.88;;;10.34;69.76
48424;BME280;34232;42.502;26.014;2023-05-12T00:20:16;100564.03;;;10.34;69.77
48424;BME280;34232;42.502;26.014;2023-05-12T00:22:41;100558.88;;;10.32;69.85
48424;BME280;34232;42.502;26.014;2023-05-12T00:25:07;100553.63;;;10.32;69.75
48424;BME280;34232;42.502;26.014;2023-05-12T00:27:32;100548.38;;;10.32;69.44
48424;BME280;34232;42.502;26.014;2023-05-12T00:29:57;100554.69;;;10.30;69.30
48424;BME280;34232;42.502;26.014;2023-05-12T00:32:23;100554.47;;;10.33;68.86
48424;BME280;34232;42.502;26.014;2023-05-12T00:34:48;100548.03;;;10.37;68.76
48424;BME280;34232;42.502;26.014;2023-05-12T00:37:14;100556.78;;;10.37;68.49
48424;BME280;34232;42.502;26.014;2023-05-12T00:39:39;100554.03;;;10.39;68.29
48424;BME280;34232;42.502;26.014;2023-05-12T00:42:04;100554.63;;;10.42;68.04
48424;BME280;34232;42.502;26.014;2023-05-12T00:44:30;100556.81;;;10.48;68.07
48424;BME280;34232;42.502;26.014;2023-05-12T00:46:55;100557.31;;;10.54;67.45
48424;BME280;34232;42.502;26.014;2023-05-12T00:49:21;100565.69;;;10.59;66.52
48424;BME280;34232;42.502;26.014;2023-05-12T00:51:46;100559.47;;;10.60;66.30
48424;BME280;34232;42.502;26.014;2023-05-12T00:54:12;100559.25;;;10.63;66.11
48424;BME280;34232;42.502;26.014;2023-05-12T00:56:37;100563.34;;;10.67;66.02
48424;BME280;34232;42.502;26.014;2023-05-12T00:59:06;100564.81;;;10.71;65.28
48424;BME280;34232;42.502;26.014;2023-05-12T01:01:32;100561.81;;;10.75;65.20
48424;BME280;34232;42.502;26.014;2023-05-12T01:03:57;100553.78;;;10.77;64.68
48424;BME280;34232;42.502;26.014;2023-05-12T01:09:00;100558.22;;;10.76;64.65
48424;BME280;34232;42.502;26.014;2023-05-12T01:11:26;100555.59;;;10.76;64.45
48424;BME280;34232;42.502;26.014;2023-05-12T01:13:51;100552.34;;;10.73;64.24
48424;BME280;34232;42.502;26.014;2023-05-12T01:16:16;100555.94;;;10.72;64.03
48424;BME280;34232;42.502;26.014;2023-05-12T01:18:43;100553.53;;;10.69;64.29
48424;BME280;34232;42.502;26.014;2023-05-12T01:21:14;100567.16;;;10.63;64.92
48424;BME280;34232;42.502;26.014;2023-05-12T01:23:41;100557.06;;;10.57;64.60
48424;BME280;34232;42.502;26.014;2023-05-12T01:26:08;100555.13;;;10.47;65.12
48424;BME280;34232;42.502;26.014;2023-05-12T01:28:34;100557.97;;;10.44;64.92
48424;BME280;34232;42.502;26.014;2023-05-12T01:31:00;100556.31;;;10.43;64.91
48424;BME280;34232;42.502;26.014;2023-05-12T01:33:27;100548.28;;;10.45;65.46
48424;BME280;34232;42.502;26.014;2023-05-12T01:35:53;100551.03;;;10.43;64.56
48424;BME280;34232;42.502;26.014;2023-05-12T01:38:18;100545.88;;;10.42;65.03
48424;BME280;34232;42.502;26.014;2023-05-12T01:40:43;100549.13;;;10.45;65.03
48424;BME280;34232;42.502;26.014;2023-05-12T01:43:08;100542.19;;;10.44;64.69
48424;BME280;34232;42.502;26.014;2023-05-12T01:45:34;100546.72;;;10.42;64.88
48424;BME280;34232;42.502;26.014;2023-05-12T01:47:59;100549.34;;;10.42;64.91
48424;BME280;34232;42.502;26.014;2023-05-12T01:50:24;100547.69;;;10.41;64.59
48424;BME280;34232;42.502;26.014;2023-05-12T01:52:50;100545.50;;;10.35;65.06
48424;BME280;34232;42.502;26.014;2023-05-12T01:55:15;100546.47;;;10.34;65.19
48424;BME280;34232;42.502;26.014;2023-05-12T01:57:41;100543.94;;;10.33;65.28
48424;BME280;34232;42.502;26.014;2023-05-12T02:00:06;100549.31;;;10.31;65.25
48424;BME280;34232;42.502;26.014;2023-05-12T02:02:32;100541.63;;;10.28;65.58
48424;BME280;34232;42.502;26.014;2023-05-12T02:04:58;100545.13;;;10.29;65.30
48424;BME280;34232;42.502;26.014;2023-05-12T02:07:24;100533.00;;;10.26;65.95
48424;BME280;34232;42.502;26.014;2023-05-12T02:09:49;100537.69;;;10.23;65.93
48424;BME280;34232;42.502;26.014;2023-05-12T02:12:15;100529.06;;;10.21;65.39
48424;BME280;34232;42.502;26.014;2023-05-12T02:14:40;100535.34;;;10.18;65.24
48424;BME280;34232;42.502;26.014;2023-05-12T02:17:05;100539.69;;;10.19;65.73
48424;BME280;34232;42.502;26.014;2023-05-12T02:19:31;100542.31;;;10.19;65.76
48424;BME280;34232;42.502;26.014;2023-05-12T02:21:56;100544.84;;;10.21;66.08
48424;BME280;34232;42.502;26.014;2023-05-12T02:24:21;100545.88;;;10.18;65.73
48424;BME280;34232;42.502;26.014;2023-05-12T02:26:46;100553.88;;;10.16;65.86
48424;BME280;34232;42.502;26.014;2023-05-12T02:29:12;100560.19;;;10.14;65.95
48424;BME280;34232;42.502;26.014;2023-05-12T02:31:37;100551.13;;;10.18;65.83
48424;BME280;34232;42.502;26.014;2023-05-12T02:34:02;100554.53;;;10.20;65.57
48424;BME280;34232;42.502;26.014;2023-05-12T02:36:28;100550.22;;;10.19;65.00
48424;BME280;34232;42.502;26.014;2023-05-12T02:38:53;100554.53;;;10.20;64.95
48424;BME280;34232;42.502;26.014;2023-05-12T02:41:18;100551.13;;;10.18;64.81
48424;BME280;34232;42.502;26.014;2023-05-12T02:43:44;100545.25;;;10.14;64.52
48424;BME280;34232;42.502;26.014;2023-05-12T02:46:09;100539.38;;;10.11;64.08
48424;BME280;34232;42.502;26.014;2023-05-12T02:48:34;100540.22;;;10.11;64.16
48424;BME280;34232;42.502;26.014;2023-05-12T02:51:00;100545.16;;;10.16;64.38
48424;BME280;34232;42.502;26.014;2023-05-12T02:53:25;100545.03;;;10.17;64.79
48424;BME280;34232;42.502;26.014;2023-05-12T02:55:51;100545.03;;;10.17;64.35
48424;BME280;34232;42.502;26.014;2023-05-12T02:58:17;100546.63;;;10.20;65.00
48424;BME280;34232;42.502;26.014;2023-05-12T03:00:42;100551.13;;;10.18;65.19
48424;BME280;34232;42.502;26.014;2023-05-12T03:03:07;100545.88;;;10.18;65.69
48424;BME280;34232;42.502;26.014;2023-05-12T03:05:32;100556.22;;;10.21;65.59
48424;BME280;34232;42.502;26.014;2023-05-12T03:07:58;100550.94;;;10.21;65.44
48424;BME280;34232;42.502;26.014;2023-05-12T03:10:23;100550.94;;;10.21;65.61
48424;BME280;34232;42.502;26.014;2023-05-12T03:12:48;100550.69;;;10.24;65.54
48424;BME280;34232;42.502;26.014;2023-05-12T03:17:42;100547.38;;;10.22;66.11
48424;BME280;34232;42.502;26.014;2023-05-12T03:20:07;100541.66;;;10.15;65.92
48424;BME280;34232;42.502;26.014;2023-05-12T03:22:33;100550.69;;;10.24;66.21
48424;BME280;34232;42.502;26.014;2023-05-12T03:24:58;100552.84;;;10.19;66.02
48424;BME280;34232;42.502;26.014;2023-05-12T03:27:23;100557.91;;;10.22;65.93
48424;BME280;34232;42.502;26.014;2023-05-12T03:29:48;100559.53;;;10.23;66.25
48424;BME280;34232;42.502;26.014;2023-05-12T03:32:14;100563.00;;;10.24;66.00
48424;BME280;34232;42.502;26.014;2023-05-12T03:34:39;100565.44;;;10.27;66.37
48424;BME280;34232;42.502;26.014;2023-05-12T03:37:04;100572.19;;;10.18;67.06
48424;BME280;34232;42.502;26.014;2023-05-12T03:39:30;100574.28;;;10.13;67.74
48424;BME280;34232;42.502;26.014;2023-05-12T03:41:55;100576.81;;;10.14;67.55
48424;BME280;34232;42.502;26.014;2023-05-12T03:44:20;100581.25;;;10.14;68.62
48424;BME280;34232;42.502;26.014;2023-05-12T03:46:45;100577.44;;;10.18;68.39
48424;BME280;34232;42.502;26.014;2023-05-12T03:49:11;100586.38;;;10.28;68.72
48424;BME280;34232;42.502;26.014;2023-05-12T03:51:36;100589.41;;;10.35;69.02
48424;BME280;34232;42.502;26.014;2023-05-12T03:54:01;100592.66;;;10.38;69.42
48424;BME280;34232;42.502;26.014;2023-05-12T03:56:27;100584.31;;;10.44;69.24
48424;BME280;34232;42.502;26.014;2023-05-12T03:58:53;100586.50;;;10.50;69.90
48424;BME280;34232;42.502;26.014;2023-05-12T04:01:18;100588.66;;;10.57;70.13
48424;BME280;34232;42.502;26.014;2023-05-12T04:03:44;100600.13;;;10.56;69.49
48424;BME280;34232;42.502;26.014;2023-05-12T04:06:10;100594.09;;;10.66;69.69
48424;BME280;34232;42.502;26.014;2023-05-12T04:08:35;100588.97;;;10.76;70.07
48424;BME280;34232;42.502;26.014;2023-05-12T04:11:00;100592.50;;;10.88;71.06
48424;BME280;34232;42.502;26.014;2023-05-12T04:13:26;100589.75;;;10.89;70.14
48424;BME280;34232;42.502;26.014;2023-05-12T04:15:55;100588.84;;;11.01;70.65
48424;BME280;34232;42.502;26.014;2023-05-12T04:18:21;100594.84;;;11.14;70.14
48424;BME280;34232;42.502;26.014;2023-05-12T04:20:46;100596.66;;;11.25;67.12
48424;BME280;34232;42.502;26.014;2023-05-12T04:23:11;100599.56;;;11.33;66.18
48424;BME280;34232;42.502;26.014;2023-05-12T04:25:39;100598.59;;;11.45;65.23
48424;BME280;34232;42.502;26.014;2023-05-12T04:28:05;100600.16;;;11.59;65.32
48424;BME280;34232;42.502;26.014;2023-05-12T04:30:31;100602.81;;;11.70;65.15
48424;BME280;34232;42.502;26.014;2023-05-12T04:32:56;100598.28;;;11.83;65.49
48424;BME280;34232;42.502;26.014;2023-05-12T04:35:21;100607.63;;;11.99;65.61
48424;BME280;34232;42.502;26.014;2023-05-12T04:37:46;100605.69;;;12.12;65.29
48424;BME280;34232;42.502;26.014;2023-05-12T04:40:13;100609.13;;;12.23;65.43
48424;BME280;34232;42.502;26.014;2023-05-12T04:42:38;100602.03;;;12.35;64.53
48424;BME280;34232;42.502;26.014;2023-05-12T04:45:04;100600.56;;;12.42;64.36
48424;BME280;34232;42.502;26.014;2023-05-12T04:47:29;100602.34;;;12.53;64.47
48424;BME280;34232;42.502;26.014;2023-05-12T04:49:55;100602.44;;;12.63;63.76
48424;BME280;34232;42.502;26.014;2023-05-12T04:52:20;100603.34;;;12.73;63.34
48424;BME280;34232;42.502;26.014;2023-05-12T04:54:46;100603.44;;;12.82;62.87
48424;BME280;34232;42.502;26.014;2023-05-12T04:57:11;100602.91;;;12.88;61.06
48424;BME280;34232;42.502;26.014;2023-05-12T04:59:36;100609.94;;;12.99;60.46
48424;BME280;34232;42.502;26.014;2023-05-12T05:02:01;100605.69;;;13.08;60.28
48424;BME280;34232;42.502;26.014;2023-05-12T05:04:27;100608.44;;;13.17;60.44
48424;BME280;34232;42.502;26.014;2023-05-12T05:06:52;100594.31;;;13.28;60.04
48424;BME280;34232;42.502;26.014;2023-05-12T05:09:19;100610.22;;;13.38;58.68
48424;BME280;34232;42.502;26.014;2023-05-12T05:11:45;100612.78;;;13.49;58.33
48424;BME280;34232;42.502;26.014;2023-05-12T05:14:10;100608.41;;;13.59;57.51
48424;BME280;34232;42.502;26.014;2023-05-12T05:16:36;100611.09;;;13.69;57.80
48424;BME280;34232;42.502;26.014;2023-05-12T05:19:01;100611.13;;;13.78;57.54
48424;BME280;34232;42.502;26.014;2023-05-12T05:21:27;100610.19;;;13.89;57.11
48424;BME280;34232;42.502;26.014;2023-05-12T05:23:52;100608.53;;;13.97;57.12
48424;BME280;34232;42.502;26.014;2023-05-12T05:26:18;100610.00;;;14.11;55.95
48424;BME280;34232;42.502;26.014;2023-05-12T05:28:43;100611.97;;;14.19;54.47
48424;BME280;34232;42.502;26.014;2023-05-12T05:31:13;100616.84;;;14.33;54.58
48424;BME280;34232;42.502;26.014;2023-05-12T05:33:39;100610.50;;;14.45;53.56
48424;BME280;34232;42.502;26.014;2023-05-12T05:36:04;100612.06;;;14.57;54.15
48424;BME280;34232;42.502;26.014;2023-05-12T05:38:30;100615.28;;;14.70;51.51
48424;BME280;34232;42.502;26.014;2023-05-12T05:40:55;100617.63;;;14.83;50.23
48424;BME280;34232;42.502;26.014;2023-05-12T05:43:20;100621.81;;;14.86;48.90
48424;BME280;34232;42.502;26.014;2023-05-12T05:45:46;100615.66;;;14.95;49.71
48424;BME280;34232;42.502;26.014;2023-05-12T05:48:13;100606.63;;;15.07;48.86
48424;BME280;34232;42.502;26.014;2023-05-12T05:50:38;100607.84;;;15.13;50.63
48424;BME280;34232;42.502;26.014;2023-05-12T05:53:04;100613.59;;;15.08;49.53
48424;BME280;34232;42.502;26.014;2023-05-12T05:55:30;100612.03;;;15.15;49.27
48424;BME280;34232;42.502;26.014;2023-05-12T05:57:55;100612.72;;;15.17;48.44
48424;BME280;34232;42.502;26.014;2023-05-12T06:00:20;100612.63;;;15.09;48.15
48424;BME280;34232;42.502;26.014;2023-05-12T06:02:46;100605.31;;;15.11;48.33
48424;BME280;34232;42.502;26.014;2023-05-12T06:05:11;100607.56;;;15.25;50.22
48424;BME280;34232;42.502;26.014;2023-05-12T06:07:36;100600.59;;;15.24;48.34
48424;BME280;34232;42.502;26.014;2023-05-12T06:10:02;100604.19;;;15.33;47.90
48424;BME280;34232;42.502;26.014;2023-05-12T06:12:28;100606.41;;;15.37;48.47
48424;BME280;34232;42.502;26.014;2023-05-12T06:14:53;100598.31;;;15.29;48.04
48424;BME280;34232;42.502;26.014;2023-05-12T06:17:18;100594.69;;;15.30;47.62
48424;BME280;34232;42.502;26.014;2023-05-12T06:19:44;100600.88;;;15.21;49.75
48424;BME280;34232;42.502;26.014;2023-05-12T06:22:12;100609.22;;;15.26;48.26
48424;BME280;34232;42.502;26.014;2023-05-12T06:24:37;100602.78;;;15.38;49.54
48424;BME280;34232;42.502;26.014;2023-05-12T06:27:02;100596.50;;;15.39;48.24
48424;BME280;34232;42.502;26.014;2023-05-12T06:29:27;100598.44;;;15.57;49.53
48424;BME280;34232;42.502;26.014;2023-05-12T06:31:55;100594.09;;;15.56;48.85
48424;BME280;34232;42.502;26.014;2023-05-12T06:34:20;100597.66;;;15.74;47.49
48424;BME280;34232;42.502;26.014;2023-05-12T06:36:46;100595.38;;;15.79;47.69
48424;BME280;34232;42.502;26.014;2023-05-12T06:39:11;100604.16;;;15.89;48.24
48424;BME280;34232;42.502;26.014;2023-05-12T06:41:36;100602.97;;;15.74;46.25
48424;BME280;34232;42.502;26.014;2023-05-12T06:44:02;100608.22;;;15.84;47.84
48424;BME280;34232;42.502;26.014;2023-05-12T06:46:27;100602.50;;;15.88;46.46
48424;BME280;34232;42.502;26.014;2023-05-12T06:48:52;100596.22;;;15.80;46.69
48424;BME280;34232;42.502;26.014;2023-05-12T06:51:19;100607.81;;;15.88;46.67
48424;BME280;34232;42.502;26.014;2023-05-12T06:53:45;100600.91;;;15.95;46.42
48424;BME280;34232;42.502;26.014;2023-05-12T06:56:10;100603.28;;;15.98;46.80
48424;BME280;34232;42.502;26.014;2023-05-12T06:58:35;100600.03;;;16.04;46.45
48424;BME280;34232;42.502;26.014;2023-05-12T07:01:01;100605.81;;;16.18;46.67
48424;BME280;34232;42.502;26.014;2023-05-12T07:03:26;100607.34;;;16.20;44.76
48424;BME280;34232;42.502;26.014;2023-05-12T07:05:51;100604.63;;;16.30;44.69
48424;BME280;34232;42.502;26.014;2023-05-12T07:08:16;100600.25;;;16.38;44.16
48424;BME280;34232;42.502;26.014;2023-05-12T07:10:42;100602.91;;;16.38;43.81
48424;BME280;34232;42.502;26.014;2023-05-12T07:13:07;100600.16;;;16.48;44.50
48424;BME280;34232;42.502;26.014;2023-05-12T07:15:33;100606.56;;;16.73;44.83
48424;BME280;34232;42.502;26.014;2023-05-12T07:17:58;100601.66;;;16.78;43.52
48424;BME280;34232;42.502;26.014;2023-05-12T07:20:23;100607.25;;;16.93;42.20
48424;BME280;34232;42.502;26.014;2023-05-12T07:22:49;100608.31;;;17.00;41.62
48424;BME280;34232;42.502;26.014;2023-05-12T07:25:16;100600.38;;;17.08;40.25
48424;BME280;34232;42.502;26.014;2023-05-12T07:27:41;100601.88;;;17.28;40.75
48424;BME280;34232;42.502;26.014;2023-05-12T07:30:07;100590.72;;;17.51;40.60
48424;BME280;34232;42.502;26.014;2023-05-12T07:32:32;100586.72;;;17.55;40.30
48424;BME280;34232;42.502;26.014;2023-05-12T07:34:57;100588.56;;;17.80;41.17
48424;BME280;34232;42.502;26.014;2023-05-12T07:37:23;100596.06;;;17.85;38.59
48424;BME280;34232;42.502;26.014;2023-05-12T07:39:48;100603.63;;;17.97;38.93
48424;BME280;34232;42.502;26.014;2023-05-12T07:42:13;100597.78;;;17.94;39.21
48424;BME280;34232;42.502;26.014;2023-05-12T07:44:39;100599.50;;;18.11;38.75
48424;BME280;34232;42.502;26.014;2023-05-12T07:47:05;100598.72;;;18.27;39.48
48424;BME280;34232;42.502;26.014;2023-05-12T07:49:31;100600.69;;;18.25;38.09
48424;BME280;34232;42.502;26.014;2023-05-12T07:51:56;100592.69;;;18.16;38.26
48424;BME280;34232;42.502;26.014;2023-05-12T07:54:21;100592.03;;;18.14;37.07
48424;BME280;34232;42.502;26.014;2023-05-12T07:56:46;100594.38;;;18.17;38.71
48424;BME280;34232;42.502;26.014;2023-05-12T07:59:12;100589.69;;;18.19;38.48
48424;BME280;34232;42.502;26.014;2023-05-12T08:01:38;100594.53;;;18.16;38.62
48424;BME280;34232;42.502;26.014;2023-05-12T08:04:03;100593.34;;;18.10;37.75
48424;BME280;34232;42.502;26.014;2023-05-12T08:06:29;100590.31;;;18.05;37.90
48424;BME280;34232;42.502;26.014;2023-05-12T08:08:54;100586.97;;;18.03;39.28
48424;BME280;34232;42.502;26.014;2023-05-12T08:11:22;100589.00;;;18.01;39.22
48424;BME280;34232;42.502;26.014;2023-05-12T08:13:47;100585.13;;;18.04;39.03
48424;BME280;34232;42.502;26.014;2023-05-12T08:16:12;100594.69;;;18.14;39.15
48424;BME280;34232;42.502;26.014;2023-05-12T08:18:37;100593.03;;;18.13;39.72
48424;BME280;34232;42.502;26.014;2023-05-12T08:21:03;100585.31;;;18.02;40.59
48424;BME280;34232;42.502;26.014;2023-05-12T08:23:28;100583.50;;;18.11;39.59
48424;BME280;34232;42.502;26.014;2023-05-12T08:25:53;100583.13;;;17.98;39.45
48424;BME280;34232;42.502;26.014;2023-05-12T08:28:18;100587.28;;;17.92;40.97
48424;BME280;34232;42.502;26.014;2023-05-12T08:30:44;100585.84;;;17.72;40.17
48424;BME280;34232;42.502;26.014;2023-05-12T08:33:11;100586.72;;;17.55;41.37
48424;BME280;34232;42.502;26.014;2023-05-12T08:35:36;100585.88;;;17.54;41.88
48424;BME280;34232;42.502;26.014;2023-05-12T08:38:01;100602.19;;;17.25;42.91
48424;BME280;34232;42.502;26.014;2023-05-12T08:40:28;100590.81;;;17.15;42.65
48424;BME280;34232;42.502;26.014;2023-05-12T08:45:28;100588.19;;;17.23;43.03
48424;BME280;34232;42.502;26.014;2023-05-12T08:47:54;100582.44;;;17.10;42.49
48424;BME280;34232;42.502;26.014;2023-05-12T08:50:20;100590.50;;;17.18;43.47
48424;BME280;34232;42.502;26.014;2023-05-12T08:52:46;100587.28;;;17.32;43.74
48424;BME280;34232;42.502;26.014;2023-05-12T08:55:12;100581.38;;;17.46;42.64
48424;BME280;34232;42.502;26.014;2023-05-12T08:57:38;100580.50;;;17.64;43.04
48424;BME280;34232;42.502;26.014;2023-05-12T09:00:04;100589.56;;;17.79;40.41
48424;BME280;34232;42.502;26.014;2023-05-12T09:02:32;100577.94;;;17.88;40.50
48424;BME280;34232;42.502;26.014;2023-05-12T09:04:58;100585.66;;;17.99;40.11
48424;BME280;34232;42.502;26.014;2023-05-12T09:07:23;100583.41;;;18.29;39.52
48424;BME280;34232;42.502;26.014;2023-05-12T09:09:55;100591.75;;;18.42;38.73
48424;BME280;34232;42.502;26.014;2023-05-12T09:12:22;100582.81;;;18.59;39.24
48424;BME280;34232;42.502;26.014;2023-05-12T09:14:54;100591.50;;;18.94;39.79
48424;BME280;34232;42.502;26.014;2023-05-12T09:17:24;100578.50;;;18.99;36.66
48424;BME280;34232;42.502;26.014;2023-05-12T09:19:49;100577.16;;;19.11;38.08
48424;BME280;34232;42.502;26.014;2023-05-12T09:22:14;100579.16;;;19.09;35.74
48424;BME280;34232;42.502;26.014;2023-05-12T09:24:40;100579.13;;;19.17;37.28
48424;BME280;34232;42.502;26.014;2023-05-12T09:27:06;100581.44;;;19.44;36.69
48424;BME280;34232;42.502;26.014;2023-05-12T09:29:31;100578.03;;;19.67;36.84
48424;BME280;34232;42.502;26.014;2023-05-12T09:31:58;100578.19;;;19.73;37.37
48424;BME280;34232;42.502;26.014;2023-05-12T09:34:31;100571.28;;;19.95;36.37
48424;BME280;34232;42.502;26.014;2023-05-12T09:36:58;100572.94;;;19.96;35.62
48424;BME280;34232;42.502;26.014;2023-05-12T09:39:23;100570.84;;;19.75;36.21
48424;BME280;34232;42.502;26.014;2023-05-12T09:41:48;100570.19;;;19.65;36.64
48424;BME280;34232;42.502;26.014;2023-05-12T09:44:14;100576.88;;;19.69;36.64
48424;BME280;34232;42.502;26.014;2023-05-12T09:46:43;100580.06;;;19.48;35.56
48424;BME280;34232;42.502;26.014;2023-05-12T09:49:08;100582.41;;;19.60;36.70
48424;BME280;34232;42.502;26.014;2023-05-12T09:51:34;100586.78;;;19.36;36.05
48424;BME280;34232;42.502;26.014;2023-05-12T09:53:59;100580.63;;;19.19;35.43
48424;BME280;34232;42.502;26.014;2023-05-12T09:56:28;100581.16;;;19.15;37.09
48424;BME280;34232;42.502;26.014;2023-05-12T09:58:54;100573.31;;;18.89;37.84
48424;BME280;34232;42.502;26.014;2023-05-12T10:01:21;100574.16;;;18.90;36.77
48424;BME280;34232;42.502;26.014;2023-05-12T10:03:50;100580.50;;;18.97;38.21
48424;BME280;34232;42.502;26.014;2023-05-12T10:06:25;100572.13;;;19.00;37.29
48424;BME280;34232;42.502;26.014;2023-05-12T10:11:19;100577.81;;;19.05;36.98
48424;BME280;34232;42.502;26.014;2023-05-12T10:13:46;100572.47;;;19.05;36.84
48424;BME280;34232;42.502;26.014;2023-05-12T10:16:12;100576.97;;;19.20;36.67
48424;BME280;34232;42.502;26.014;2023-05-12T10:18:38;100587.00;;;19.10;35.53
48424;BME280;34232;42.502;26.014;2023-05-12T10:21:04;100578.50;;;18.99;35.64
48424;BME280;34232;42.502;26.014;2023-05-12T10:23:29;100581.47;;;18.87;35.31
48424;BME280;34232;42.502;26.014;2023-05-12T10:25:55;100574.34;;;18.80;35.27
48424;BME280;34232;42.502;26.014;2023-05-12T10:28:23;100576.00;;;18.81;36.89
48424;BME280;34232;42.502;26.014;2023-05-12T10:30:48;100569.81;;;18.80;36.56
48424;BME280;34232;42.502;26.014;2023-05-12T10:33:14;100568.50;;;18.76;35.89
48424;BME280;34232;42.502;26.014;2023-05-12T10:35:41;100565.97;;;18.91;37.09
48424;BME280;34232;42.502;26.014;2023-05-12T10:38:08;100564.47;;;19.13;36.24
48424;BME280;34232;42.502;26.014;2023-05-12T10:40:34;100561.78;;;19.21;36.03
48424;BME280;34232;42.502;26.014;2023-05-12T10:43:00;100562.09;;;19.18;38.14
48424;BME280;34232;42.502;26.014;2023-05-12T10:45:25;100560.06;;;19.36;36.06
48424;BME280;34232;42.502;26.014;2023-05-12T10:47:50;100556.56;;;19.52;37.08
48424;BME280;34232;42.502;26.014;2023-05-12T10:50:25;100560.00;;;19.69;36.07
48424;BME280;34232;42.502;26.014;2023-05-12T10:52:52;100559.91;;;19.93;36.91
48424;BME280;34232;42.502;26.014;2023-05-12T10:55:17;100565.34;;;20.08;35.40
48424;BME280;34232;42.502;26.014;2023-05-12T10:58:03;100553.81;;;20.07;35.36
48424;BME280;34232;42.502;26.014;2023-05-12T11:00:28;100549.47;;;20.06;35.65
48424;BME280;34232;42.502;26.014;2023-05-12T11:02:53;100555.00;;;20.05;36.72
48424;BME280;34232;42.502;26.014;2023-05-12T11:05:19;100556.25;;;19.86;35.16
48424;BME280;34232;42.502;26.014;2023-05-12T11:07:47;100550.25;;;19.84;36.02
48424;BME280;34232;42.502;26.014;2023-05-12T11:10:13;100556.00;;;19.73;35.86
48424;BME280;34232;42.502;26.014;2023-05-12T11:12:41;100546.03;;;19.59;35.90
48424;BME280;34232;42.502;26.014;2023-05-12T11:15:06;100544.69;;;19.54;36.24
48424;BME280;34232;42.502;26.014;2023-05-12T11:17:32;100550.22;;;19.53;34.81
48424;BME280;34232;42.502;26.014;2023-05-12T11:19:57;100549.69;;;19.58;33.96
48424;BME280;34232;42.502;26.014;2023-05-12T11:22:24;100559.84;;;19.70;37.10
48424;BME280;34232;42.502;26.014;2023-05-12T11:24:50;100559.38;;;19.59;36.01
48424;BME280;34232;42.502;26.014;2023-05-12T11:27:17;100561.19;;;19.66;36.33
48424;BME280;34232;42.502;26.014;2023-05-12T11:29:42;100557.59;;;19.82;35.88
48424;BME280;34232;42.502;26.014;2023-05-12T11:32:09;100559.16;;;19.76;35.53
48424;BME280;34232;42.502;26.014;2023-05-12T11:34:36;100549.81;;;19.72;34.71
48424;BME280;34232;42.502;26.014;2023-05-12T11:37:02;100544.44;;;19.80;35.08
48424;BME280;34232;42.502;26.014;2023-05-12T11:39:28;100542.00;;;19.63;36.28
48424;BME280;34232;42.502;26.014;2023-05-12T11:42:05;100546.34;;;19.64;35.45
48424;BME280;34232;42.502;26.014;2023-05-12T11:44:33;100538.63;;;19.69;34.38
48424;BME280;34232;42.502;26.014;2023-05-12T11:47:00;100546.72;;;19.91;35.89
48424;BME280;34232;42.502;26.014;2023-05-12T11:49:26;100553.91;;;19.91;34.71
48424;BME280;34232;42.502;26.014;2023-05-12T11:51:55;100541.22;;;19.85;34.95
48424;BME280;34232;42.502;26.014;2023-05-12T11:54:21;100551.81;;;19.78;35.27
48424;BME280;34232;42.502;26.014;2023-05-12T11:56:50;100547.66;;;19.68;35.03
48424;BME280;34232;42.502;26.014;2023-05-12T11:59:32;100535.94;;;19.77;35.63
48424;BME280;34232;42.502;26.014;2023-05-12T12:01:58;100538.63;;;19.77;35.15
48424;BME280;34232;42.502;26.014;2023-05-12T12:04:33;100541.94;;;19.79;36.20
48424;BME280;34232;42.502;26.014;2023-05-12T12:06:59;100523.00;;;19.88;35.42
48424;BME280;34232;42.502;26.014;2023-05-12T12:09:32;100537.88;;;19.91;35.98
48424;BME280;34232;42.502;26.014;2023-05-12T12:11:58;100538.38;;;19.95;34.23
48424;BME280;34232;42.502;26.014;2023-05-12T12:14:23;100536.88;;;19.84;35.09
48424;BME280;34232;42.502;26.014;2023-05-12T12:16:48;100524.91;;;19.80;34.87
48424;BME280;34232;42.502;26.014;2023-05-12T12:19:14;100527.13;;;19.68;34.81
48424;BME280;34232;42.502;26.014;2023-05-12T12:21:39;100528.94;;;19.76;34.13
48424;BME280;34232;42.502;26.014;2023-05-12T12:24:05;100523.25;;;19.79;34.56
48424;BME280;34232;42.502;26.014;2023-05-12T12:26:30;100521.88;;;19.83;34.58
48424;BME280;34232;42.502;26.014;2023-05-12T12:28:55;100521.84;;;19.91;34.89
48424;BME280;34232;42.502;26.014;2023-05-12T12:31:21;100521.13;;;19.97;35.40
48424;BME280;34232;42.502;26.014;2023-05-12T12:33:46;100520.44;;;20.03;34.43
48424;BME280;34232;42.502;26.014;2023-05-12T12:36:12;100523.41;;;20.08;34.05
48424;BME280;34232;42.502;26.014;2023-05-12T12:38:37;100527.56;;;20.11;35.41
48424;BME280;34232;42.502;26.014;2023-05-12T12:41:02;100524.16;;;19.94;33.50
48424;BME280;34232;42.502;26.014;2023-05-12T12:43:29;100519.81;;;19.93;34.62